sensor_id;sensor_type;location;lat;lon;timestamp;pressure;altitude;pressure_sealevel;temperature;humidity
44075;BME280;60448;44.956;7.660;2023-04-26T00:00:00;98410;;;22.4;44.2
44075;BME280;60448;44.956;7.660;2023-04-26T00:05:00;98410;;;22.4;44.2
44075;BME280;60448;44.956;7.660;2023-04-26T00:10:00;98430;;;22.4;44.3
44075;BME280;60448;44.956;7.660;2023-04-26T00:15:00;98430;;;22.3;44.3
44075;BME280;60448;44.956;7.660;2023-04-26T00:20:00;98430;;;22.3;44.3
44075;BME280;60448;44.956;7.660;2023-04-26T00:25:00;98430;;;22.3;44.3
44075;BME280;60448;44.956;7.660;2023-04-26T00:30:00;98420;;;22.3;44.2
44075;BME280;60448;44.956;7.660;2023-04-26T00:35:01;98420;;;22.3;44.2
44075;BME280;60448;44.956;7.660;2023-04-26T00:40:00;98420;;;22.3;44.2
44075;BME280;60448;44.956;7.660;2023-04-26T00:45:00;98430;;;22.3;44.1
44075;BME280;60448;44.956;7.660;2023-04-26T00:50:00;98430;;;22.3;44.1
44075;BME280;60448;44.956;7.660;2023-04-26T00:55:00;98430;;;22.3;44.1
44075;BME280;60448;44.956;7.660;2023-04-26T01:00:00;98440;;;22.2;44.1
44075;BME280;60448;44.956;7.660;2023-04-26T01:05:00;98440;;;22.2;44.1
44075;BME280;60448;44.956;7.660;2023-04-26T01:10:00;98440;;;22.2;44.1
44075;BME280;60448;44.956;7.660;2023-04-26T01:15:00;98440;;;22.2;44.2
44075;BME280;60448;44.956;7.660;2023-04-26T01:20:00;98440;;;22.2;44.3
44075;BME280;60448;44.956;7.660;2023-04-26T01:25:00;98440;;;22.2;44.3
44075;BME280;60448;44.956;7.660;2023-04-26T01:30:00;98440;;;22.2;44.3
44075;BME280;60448;44.956;7.660;2023-04-26T01:35:00;98440;;;22.2;44.4
44075;BME280;60448;44.956;7.660;2023-04-26T01:40:00;98440;;;22.2;44.4
44075;BME280;60448;44.956;7.660;2023-04-26T01:45:00;98440;;;22.2;44.5
44075;BME280;60448;44.956;7.660;2023-04-26T01:50:00;98440;;;22.1;44.5
44075;BME280;60448;44.956;7.660;2023-04-26T01:55:00;98440;;;22.1;44.5
44075;BME280;60448;44.956;7.660;2023-04-26T02:00:00;98440;;;22.1;44.5
44075;BME280;60448;44.956;7.660;2023-04-26T02:05:00;98440;;;22.1;44.5
44075;BME280;60448;44.956;7.660;2023-04-26T02:10:00;98440;;;22.1;44.5
44075;BME280;60448;44.956;7.660;2023-04-26T02:15:00;98440;;;22.1;44.5
44075;BME280;60448;44.956;7.660;2023-04-26T02:20:00;98460;;;22.0;44.7
44075;BME280;60448;44.956;7.660;2023-04-26T02:25:00;98460;;;22.0;44.7
44075;BME280;60448;44.956;7.660;2023-04-26T02:30:00;98460;;;22.0;44.7
44075;BME280;60448;44.956;7.660;2023-04-26T02:35:00;98460;;;22.0;44.8
44075;BME280;60448;44.956;7.660;2023-04-26T02:40:00;98460;;;22.0;44.8
44075;BME280;60448;44.956;7.660;2023-04-26T02:45:00;98460;;;22.0;44.8
44075;BME280;60448;44.956;7.660;2023-04-26T02:50:00;98450;;;22.0;44.8
44075;BME280;60448;44.956;7.660;2023-04-26T02:55:00;98460;;;22.0;44.8
44075;BME280;60448;44.956;7.660;2023-04-26T03:00:00;98460;;;22.0;44.8
44075;BME280;60448;44.956;7.660;2023-04-26T03:05:00;98460;;;22.0;44.9
44075;BME280;60448;44.956;7.660;2023-04-26T03:10:00;98460;;;21.9;44.9
44075;BME280;60448;44.956;7.660;2023-04-26T03:15:00;98460;;;21.9;44.9
44075;BME280;60448;44.956;7.660;2023-04-26T03:20:00;98460;;;21.9;44.9
44075;BME280;60448;44.956;7.660;2023-04-26T03:25:00;98460;;;21.9;45.0
44075;BME280;60448;44.956;7.660;2023-04-26T03:30:00;98460;;;21.9;45.0
44075;BME280;60448;44.956;7.660;2023-04-26T03:35:00;98460;;;21.9;45.0
44075;BME280;60448;44.956;7.660;2023-04-26T03:40:00;98460;;;21.8;45.0
44075;BME280;60448;44.956;7.660;2023-04-26T03:45:00;98460;;;21.8;45.0
44075;BME280;60448;44.956;7.660;2023-04-26T03:50:00;98460;;;21.8;45.0
44075;BME280;60448;44.956;7.660;2023-04-26T03:55:00;98460;;;21.8;45.0
44075;BME280;60448;44.956;7.660;2023-04-26T04:00:00;98460;;;21.8;45.0
44075;BME280;60448;44.956;7.660;2023-04-26T04:05:00;98460;;;21.8;45.0
44075;BME280;60448;44.956;7.660;2023-04-26T04:10:00;98480;;;21.7;45.2
44075;BME280;60448;44.956;7.660;2023-04-26T04:15:00;98480;;;21.7;45.2
44075;BME280;60448;44.956;7.660;2023-04-26T04:20:01;98480;;;21.7;45.2
44075;BME280;60448;44.956;7.660;2023-04-26T04:25:00;98490;;;21.8;45.2
44075;BME280;60448;44.956;7.660;2023-04-26T04:30:00;98490;;;21.7;45.3
44075;BME280;60448;44.956;7.660;2023-04-26T04:35:00;98490;;;21.7;45.3
44075;BME280;60448;44.956;7.660;2023-04-26T04:40:00;98490;;;21.7;45.3
44075;BME280;60448;44.956;7.660;2023-04-26T04:45:00;98510;;;21.6;45.4
44075;BME280;60448;44.956;7.660;2023-04-26T04:50:00;98510;;;21.6;45.4
44075;BME280;60448;44.956;7.660;2023-04-26T04:55:00;98510;;;21.6;45.4
44075;BME280;60448;44.956;7.660;2023-04-26T05:00:00;98520;;;21.6;45.4
44075;BME280;60448;44.956;7.660;2023-04-26T05:05:00;98520;;;21.6;45.4
44075;BME280;60448;44.956;7.660;2023-04-26T05:10:00;98520;;;21.6;45.4
44075;BME280;60448;44.956;7.660;2023-04-26T05:15:00;98520;;;21.6;45.7
44075;BME280;60448;44.956;7.660;2023-04-26T05:20:00;98520;;;21.6;45.7
44075;BME280;60448;44.956;7.660;2023-04-26T05:25:00;98520;;;21.6;45.7
44075;BME280;60448;44.956;7.660;2023-04-26T05:30:00;98550;;;21.5;45.9
44075;BME280;60448;44.956;7.660;2023-04-26T05:35:00;98550;;;21.5;45.9
44075;BME280;60448;44.956;7.660;2023-04-26T05:40:00;98550;;;21.5;45.9
44075;BME280;60448;44.956;7.660;2023-04-26T05:45:00;98570;;;21.5;46.1
44075;BME280;60448;44.956;7.660;2023-04-26T05:50:00;98570;;;21.5;46.1
44075;BME280;60448;44.956;7.660;2023-04-26T05:55:00;98570;;;21.5;46.1
44075;BME280;60448;44.956;7.660;2023-04-26T06:00:00;98580;;;21.5;46.2
44075;BME280;60448;44.956;7.660;2023-04-26T06:05:00;98580;;;21.5;46.3
44075;BME280;60448;44.956;7.660;2023-04-26T06:10:00;98580;;;21.5;46.3
44075;BME280;60448;44.956;7.660;2023-04-26T06:15:00;98590;;;21.5;46.3
44075;BME280;60448;44.956;7.660;2023-04-26T06:20:00;98590;;;21.4;46.4
44075;BME280;60448;44.956;7.660;2023-04-26T06:25:00;98590;;;21.4;46.4
44075;BME280;60448;44.956;7.660;2023-04-26T06:30:00;98590;;;21.4;46.4
44075;BME280;60448;44.956;7.660;2023-04-26T06:35:00;98580;;;21.4;46.4
44075;BME280;60448;44.956;7.660;2023-04-26T06:40:00;98580;;;21.4;46.4
44075;BME280;60448;44.956;7.660;2023-04-26T06:45:00;98580;;;21.4;46.4
44075;BME280;60448;44.956;7.660;2023-04-26T06:50:00;98590;;;21.4;46.4
44075;BME280;60448;44.956;7.660;2023-04-26T06:55:00;98590;;;21.4;46.4
44075;BME280;60448;44.956;7.660;2023-04-26T07:00:00;98590;;;21.4;46.4
44075;BME280;60448;44.956;7.660;2023-04-26T07:05:00;98600;;;21.4;46.5
44075;BME280;60448;44.956;7.660;2023-04-26T07:10:00;98600;;;21.4;46.5
44075;BME280;60448;44.956;7.660;2023-04-26T07:15:00;98600;;;21.4;46.5
44075;BME280;60448;44.956;7.660;2023-04-26T07:20:00;98600;;;21.3;46.5
44075;BME280;60448;44.956;7.660;2023-04-26T07:25:00;98600;;;21.3;46.5
44075;BME280;60448;44.956;7.660;2023-04-26T07:30:00;98600;;;21.3;46.5
44075;BME280;60448;44.956;7.660;2023-04-26T07:35:00;98590;;;21.4;46.5
44075;BME280;60448;44.956;7.660;2023-04-26T07:40:00;98590;;;21.3;46.6
44075;BME280;60448;44.956;7.660;2023-04-26T07:45:00;98590;;;21.3;46.6
44075;BME280;60448;44.956;7.660;2023-04-26T07:50:00;98590;;;21.3;46.6
44075;BME280;60448;44.956;7.660;2023-04-26T07:55:00;98590;;;21.3;46.5
44075;BME280;60448;44.956;7.660;2023-04-26T08:00:00;98590;;;21.3;46.5
44075;BME280;60448;44.956;7.660;2023-04-26T08:05:00;98590;;;21.3;46.5
44075;BME280;60448;44.956;7.660;2023-04-26T08:10:00;98600;;;21.2;46.6
44075;BME280;60448;44.956;7.660;2023-04-26T08:15:00;98600;;;21.2;46.6
44075;BME280;60448;44.956;7.660;2023-04-26T08:20:00;98600;;;21.2;46.6
44075;BME280;60448;44.956;7.660;2023-04-26T08:25:00;98600;;;21.2;46.8
44075;BME280;60448;44.956;7.660;2023-04-26T08:30:00;98600;;;21.2;46.8
44075;BME280;60448;44.956;7.660;2023-04-26T08:35:00;98600;;;21.2;46.8
44075;BME280;60448;44.956;7.660;2023-04-26T08:40:00;98610;;;21.2;46.8
44075;BME280;60448;44.956;7.660;2023-04-26T08:45:00;98610;;;21.2;46.8
44075;BME280;60448;44.956;7.660;2023-04-26T08:50:00;98610;;;21.2;46.8
44075;BME280;60448;44.956;7.660;2023-04-26T08:55:00;98610;;;21.3;46.8
44075;BME280;60448;44.956;7.660;2023-04-26T09:00:02;98600;;;21.2;46.9
44075;BME280;60448;44.956;7.660;2023-04-26T09:05:00;98600;;;21.2;46.9
44075;BME280;60448;44.956;7.660;2023-04-26T09:10:00;98600;;;21.2;47.0
44075;BME280;60448;44.956;7.660;2023-04-26T09:15:00;98590;;;21.2;46.9
44075;BME280;60448;44.956;7.660;2023-04-26T09:20:00;98590;;;21.2;46.9
44075;BME280;60448;44.956;7.660;2023-04-26T09:25:01;98590;;;21.2;46.9
44075;BME280;60448;44.956;7.660;2023-04-26T09:35:00;98590;;;21.2;46.8
44075;BME280;60448;44.956;7.660;2023-04-26T09:40:00;98590;;;21.2;46.8
44075;BME280;60448;44.956;7.660;2023-04-26T09:45:07;98580;;;21.1;46.8
44075;BME280;60448;44.956;7.660;2023-04-26T09:50:00;98580;;;21.1;46.8
44075;BME280;60448;44.956;7.660;2023-04-26T09:55:00;98580;;;21.1;46.8
44075;BME280;60448;44.956;7.660;2023-04-26T10:00:00;98580;;;21.1;46.7
44075;BME280;60448;44.956;7.660;2023-04-26T10:05:00;98580;;;21.1;46.7
44075;BME280;60448;44.956;7.660;2023-04-26T10:10:00;98580;;;21.1;46.7
44075;BME280;60448;44.956;7.660;2023-04-26T10:15:02;98570;;;21.1;46.7
44075;BME280;60448;44.956;7.660;2023-04-26T10:20:00;98570;;;21.1;46.7
44075;BME280;60448;44.956;7.660;2023-04-26T10:25:00;98570;;;21.1;46.7
44075;BME280;60448;44.956;7.660;2023-04-26T10:35:08;98560;;;21.1;46.5
44075;BME280;60448;44.956;7.660;2023-04-26T10:45:23;98560;;;21.1;46.5
44075;BME280;60448;44.956;7.660;2023-04-26T10:50:04;98540;;;21.1;46.4
44075;BME280;60448;44.956;7.660;2023-04-26T10:55:00;98540;;;21.1;46.4
44075;BME280;60448;44.956;7.660;2023-04-26T11:05:01;98520;;;21.1;46.3
44075;BME280;60448;44.956;7.660;2023-04-26T11:10:00;98520;;;21.1;46.3
44075;BME280;60448;44.956;7.660;2023-04-26T11:15:00;98520;;;21.1;46.3
44075;BME280;60448;44.956;7.660;2023-04-26T11:20:03;98500;;;21.1;46.2
44075;BME280;60448;44.956;7.660;2023-04-26T11:25:00;98500;;;21.1;46.2
44075;BME280;60448;44.956;7.660;2023-04-26T11:30:02;98500;;;21.1;46.2
44075;BME280;60448;44.956;7.660;2023-04-26T11:35:00;98470;;;21.1;46.0
44075;BME280;60448;44.956;7.660;2023-04-26T11:40:00;98470;;;21.1;46.0
44075;BME280;60448;44.956;7.660;2023-04-26T11:45:00;98470;;;21.1;46.0
44075;BME280;60448;44.956;7.660;2023-04-26T11:50:00;98460;;;21.1;46.0
44075;BME280;60448;44.956;7.660;2023-04-26T11:55:00;98460;;;21.1;46.0
44075;BME280;60448;44.956;7.660;2023-04-26T12:05:00;98450;;;21.2;45.9
44075;BME280;60448;44.956;7.660;2023-04-26T12:10:12;98450;;;21.1;45.9
44075;BME280;60448;44.956;7.660;2023-04-26T12:15:00;98450;;;21.1;45.9
44075;BME280;60448;44.956;7.660;2023-04-26T12:20:00;98450;;;21.1;45.9
44075;BME280;60448;44.956;7.660;2023-04-26T12:25:03;98430;;;21.2;45.7
44075;BME280;60448;44.956;7.660;2023-04-26T12:30:00;98430;;;21.2;45.7
44075;BME280;60448;44.956;7.660;2023-04-26T12:35:00;98430;;;21.2;45.7
44075;BME280;60448;44.956;7.660;2023-04-26T12:40:00;98420;;;21.2;45.7
44075;BME280;60448;44.956;7.660;2023-04-26T12:45:00;98420;;;21.2;45.7
44075;BME280;60448;44.956;7.660;2023-04-26T12:50:00;98420;;;21.2;45.7
44075;BME280;60448;44.956;7.660;2023-04-26T12:55:00;98410;;;21.2;45.7
44075;BME280;60448;44.956;7.660;2023-04-26T13:00:00;98410;;;21.2;45.7
44075;BME280;60448;44.956;7.660;2023-04-26T13:05:00;98410;;;21.2;45.7
44075;BME280;60448;44.956;7.660;2023-04-26T13:10:00;98390;;;21.3;45.5
44075;BME280;60448;44.956;7.660;2023-04-26T13:15:00;98390;;;21.3;45.5
44075;BME280;60448;44.956;7.660;2023-04-26T13:20:00;98390;;;21.3;45.5
44075;BME280;60448;44.956;7.660;2023-04-26T13:25:00;98390;;;21.3;45.6
44075;BME280;60448;44.956;7.660;2023-04-26T13:30:00;98390;;;21.3;45.6
44075;BME280;60448;44.956;7.660;2023-04-26T13:35:00;98390;;;21.3;45.6
44075;BME280;60448;44.956;7.660;2023-04-26T13:40:00;98380;;;21.3;45.6
44075;BME280;60448;44.956;7.660;2023-04-26T13:45:00;98380;;;21.3;45.6
44075;BME280;60448;44.956;7.660;2023-04-26T13:50:00;98380;;;21.3;45.6
44075;BME280;60448;44.956;7.660;2023-04-26T13:55:00;98360;;;21.5;45.5
44075;BME280;60448;44.956;7.660;2023-04-26T14:00:00;98350;;;21.4;45.6
44075;BME280;60448;44.956;7.660;2023-04-26T14:05:00;98350;;;21.4;45.6
44075;BME280;60448;44.956;7.660;2023-04-26T14:10:00;98350;;;21.5;45.4
44075;BME280;60448;44.956;7.660;2023-04-26T14:15:00;98340;;;21.5;45.5
44075;BME280;60448;44.956;7.660;2023-04-26T14:20:00;98340;;;21.5;45.5
44075;BME280;60448;44.956;7.660;2023-04-26T14:25:00;98340;;;21.6;45.5
44075;BME280;60448;44.956;7.660;2023-04-26T14:30:00;98340;;;21.5;45.5
44075;BME280;60448;44.956;7.660;2023-04-26T14:35:00;98340;;;21.5;45.5
44075;BME280;60448;44.956;7.660;2023-04-26T14:40:01;98340;;;21.5;45.5
44075;BME280;60448;44.956;7.660;2023-04-26T14:45:00;98320;;;21.6;45.3
44075;BME280;60448;44.956;7.660;2023-04-26T14:50:01;98320;;;21.6;45.3
44075;BME280;60448;44.956;7.660;2023-04-26T14:55:00;98320;;;21.6;45.3
44075;BME280;60448;44.956;7.660;2023-04-26T15:00:00;98310;;;21.6;45.2
44075;BME280;60448;44.956;7.660;2023-04-26T15:05:00;98310;;;21.6;45.2
44075;BME280;60448;44.956;7.660;2023-04-26T15:10:00;98310;;;21.6;45.2
44075;BME280;60448;44.956;7.660;2023-04-26T15:15:00;98290;;;21.7;45.2
44075;BME280;60448;44.956;7.660;2023-04-26T15:20:00;98290;;;21.7;45.2
44075;BME280;60448;44.956;7.660;2023-04-26T15:25:00;98290;;;21.7;45.2
44075;BME280;60448;44.956;7.660;2023-04-26T15:30:01;98300;;;21.8;45.2
44075;BME280;60448;44.956;7.660;2023-04-26T15:35:00;98300;;;21.8;45.3
44075;BME280;60448;44.956;7.660;2023-04-26T15:40:00;98300;;;21.8;45.3
44075;BME280;60448;44.956;7.660;2023-04-26T15:45:00;98300;;;21.8;45.3
44075;BME280;60448;44.956;7.660;2023-04-26T15:50:01;98310;;;21.9;45.2
44075;BME280;60448;44.956;7.660;2023-04-26T15:55:00;98310;;;21.9;45.2
44075;BME280;60448;44.956;7.660;2023-04-26T16:00:00;98310;;;21.9;45.2
44075;BME280;60448;44.956;7.660;2023-04-26T16:05:00;98300;;;21.9;45.1
44075;BME280;60448;44.956;7.660;2023-04-26T16:10:00;98300;;;21.9;45.1
44075;BME280;60448;44.956;7.660;2023-04-26T16:15:00;98300;;;21.9;45.1
44075;BME280;60448;44.956;7.660;2023-04-26T16:20:00;98310;;;22.0;45.0
44075;BME280;60448;44.956;7.660;2023-04-26T16:25:00;98310;;;22.0;45.0
44075;BME280;60448;44.956;7.660;2023-04-26T16:30:01;98310;;;22.0;45.0
44075;BME280;60448;44.956;7.660;2023-04-26T16:35:00;98310;;;22.1;45.0
44075;BME280;60448;44.956;7.660;2023-04-26T16:40:00;98310;;;22.1;45.0
44075;BME280;60448;44.956;7.660;2023-04-26T16:45:00;98310;;;22.1;45.0
44075;BME280;60448;44.956;7.660;2023-04-26T16:50:00;98300;;;22.4;44.8
44075;BME280;60448;44.956;7.660;2023-04-26T16:55:00;98290;;;22.2;44.9
44075;BME280;60448;44.956;7.660;2023-04-26T17:00:00;98290;;;22.2;44.9
44075;BME280;60448;44.956;7.660;2023-04-26T17:05:00;98290;;;22.2;44.9
44075;BME280;60448;44.956;7.660;2023-04-26T17:10:00;98310;;;22.4;44.8
44075;BME280;60448;44.956;7.660;2023-04-26T17:15:00;98310;;;22.4;44.8
44075;BME280;60448;44.956;7.660;2023-04-26T17:20:00;98310;;;22.4;44.8
44075;BME280;60448;44.956;7.660;2023-04-26T17:25:00;98320;;;22.5;44.6
44075;BME280;60448;44.956;7.660;2023-04-26T17:30:00;98320;;;22.5;44.6
44075;BME280;60448;44.956;7.660;2023-04-26T17:35:00;98320;;;22.5;44.6
44075;BME280;60448;44.956;7.660;2023-04-26T17:40:00;98320;;;22.5;44.6
44075;BME280;60448;44.956;7.660;2023-04-26T17:45:00;98320;;;22.5;44.6
44075;BME280;60448;44.956;7.660;2023-04-26T17:50:00;98320;;;22.5;44.6
44075;BME280;60448;44.956;7.660;2023-04-26T17:55:00;98340;;;22.5;44.7
44075;BME280;60448;44.956;7.660;2023-04-26T18:00:00;98340;;;22.5;44.7
44075;BME280;60448;44.956;7.660;2023-04-26T18:05:00;98340;;;22.5;44.7
44075;BME280;60448;44.956;7.660;2023-04-26T18:10:00;98350;;;22.5;44.8
44075;BME280;60448;44.956;7.660;2023-04-26T18:15:00;98350;;;22.5;44.8
44075;BME280;60448;44.956;7.660;2023-04-26T18:20:00;98350;;;22.5;44.8
44075;BME280;60448;44.956;7.660;2023-04-26T18:25:00;98360;;;22.5;45.0
44075;BME280;60448;44.956;7.660;2023-04-26T18:30:00;98360;;;22.5;45.0
44075;BME280;60448;44.956;7.660;2023-04-26T18:35:00;98360;;;22.5;45.0
44075;BME280;60448;44.956;7.660;2023-04-26T18:40:00;98360;;;22.5;45.0
44075;BME280;60448;44.956;7.660;2023-04-26T18:45:00;98360;;;22.5;45.0
44075;BME280;60448;44.956;7.660;2023-04-26T18:50:00;98360;;;22.5;45.0
44075;BME280;60448;44.956;7.660;2023-04-26T18:55:00;98360;;;22.5;45.0
44075;BME280;60448;44.956;7.660;2023-04-26T19:00:00;98360;;;22.5;45.0
44075;BME280;60448;44.956;7.660;2023-04-26T19:05:00;98360;;;22.5;45.0
44075;BME280;60448;44.956;7.660;2023-04-26T19:10:00;98360;;;22.5;45.0
44075;BME280;60448;44.956;7.660;2023-04-26T19:15:00;98360;;;22.5;45.0
44075;BME280;60448;44.956;7.660;2023-04-26T19:20:00;98360;;;22.5;45.0
44075;BME280;60448;44.956;7.660;2023-04-26T19:25:00;98360;;;22.5;45.0
44075;BME280;60448;44.956;7.660;2023-04-26T19:30:00;98360;;;22.5;45.0
44075;BME280;60448;44.956;7.660;2023-04-26T19:35:00;98360;;;22.5;45.0
44075;BME280;60448;44.956;7.660;2023-04-26T19:40:00;98360;;;22.5;45.0
44075;BME280;60448;44.956;7.660;2023-04-26T19:45:00;98360;;;22.5;45.0
44075;BME280;60448;44.956;7.660;2023-04-26T19:50:00;98360;;;22.5;45.0
44075;BME280;60448;44.956;7.660;2023-04-26T19:55:00;98360;;;22.5;45.0
44075;BME280;60448;44.956;7.660;2023-04-26T20:00:01;98360;;;22.5;45.0
44075;BME280;60448;44.956;7.660;2023-04-26T20:05:00;98360;;;22.5;45.0
44075;BME280;60448;44.956;7.660;2023-04-26T20:10:00;98360;;;22.5;45.0
44075;BME280;60448;44.956;7.660;2023-04-26T20:15:01;98360;;;22.5;45.0
44075;BME280;60448;44.956;7.660;2023-04-26T20:20:00;98360;;;22.5;45.0
44075;BME280;60448;44.956;7.660;2023-04-26T20:25:00;98360;;;22.5;45.0
44075;BME280;60448;44.956;7.660;2023-04-26T20:30:00;98360;;;22.5;45.0
44075;BME280;60448;44.956;7.660;2023-04-26T20:35:00;98360;;;22.5;45.0
44075;BME280;60448;44.956;7.660;2023-04-26T20:40:00;98360;;;22.5;45.0
44075;BME280;60448;44.956;7.660;2023-04-26T20:45:00;98360;;;22.5;45.0
44075;BME280;60448;44.956;7.660;2023-04-26T20:50:00;98360;;;22.5;45.0
44075;BME280;60448;44.956;7.660;2023-04-26T20:55:00;98360;;;22.5;45.0
44075;BME280;60448;44.956;7.660;2023-04-26T21:00:00;98360;;;22.5;45.0
44075;BME280;60448;44.956;7.660;2023-04-26T21:05:00;98360;;;22.5;45.0
44075;BME280;60448;44.956;7.660;2023-04-26T21:10:00;98360;;;22.5;45.0
44075;BME280;60448;44.956;7.660;2023-04-26T21:15:00;98360;;;22.5;45.0
44075;BME280;60448;44.956;7.660;2023-04-26T21:20:00;98360;;;22.5;45.0
44075;BME280;60448;44.956;7.660;2023-04-26T21:25:00;98360;;;22.5;45.0
44075;BME280;60448;44.956;7.660;2023-04-26T21:30:00;98360;;;22.5;45.0
44075;BME280;60448;44.956;7.660;2023-04-26T21:35:00;98360;;;22.5;45.0
44075;BME280;60448;44.956;7.660;2023-04-26T21:40:00;98360;;;22.5;45.0
44075;BME280;60448;44.956;7.660;2023-04-26T21:45:00;98360;;;22.5;45.0
44075;BME280;60448;44.956;7.660;2023-04-26T21:50:00;98360;;;22.5;45.0
44075;BME280;60448;44.956;7.660;2023-04-26T21:55:01;98360;;;22.5;45.0
44075;BME280;60448;44.956;7.660;2023-04-26T22:00:00;98360;;;22.5;45.0
44075;BME280;60448;44.956;7.660;2023-04-26T22:05:00;98360;;;22.5;45.0
44075;BME280;60448;44.956;7.660;2023-04-26T22:10:00;98360;;;22.5;45.0
44075;BME280;60448;44.956;7.660;2023-04-26T22:15:00;98360;;;22.5;45.0
44075;BME280;60448;44.956;7.660;2023-04-26T22:20:00;98360;;;22.5;45.0
44075;BME280;60448;44.956;7.660;2023-04-26T22:25:00;98360;;;22.5;45.0
44075;BME280;60448;44.956;7.660;2023-04-26T22:30:00;98360;;;22.5;45.0
44075;BME280;60448;44.956;7.660;2023-04-26T22:35:00;98360;;;22.5;45.0
44075;BME280;60448;44.956;7.660;2023-04-26T22:40:00;98360;;;22.5;45.0
44075;BME280;60448;44.956;7.660;2023-04-26T22:45:00;98360;;;22.5;45.0
44075;BME280;60448;44.956;7.660;2023-04-26T22:50:00;98360;;;22.5;45.0
44075;BME280;60448;44.956;7.660;2023-04-26T22:55:00;98360;;;22.5;45.0
44075;BME280;60448;44.956;7.660;2023-04-26T23:00:00;98360;;;22.5;45.0
44075;BME280;60448;44.956;7.660;2023-04-26T23:05:00;98360;;;22.5;45.0
44075;BME280;60448;44.956;7.660;2023-04-26T23:10:00;98360;;;22.5;45.0
44075;BME280;60448;44.956;7.660;2023-04-26T23:15:00;98360;;;22.5;45.0
44075;BME280;60448;44.956;7.660;2023-04-26T23:20:00;98360;;;22.5;45.0
44075;BME280;60448;44.956;7.660;2023-04-26T23:25:00;98360;;;22.5;45.0
44075;BME280;60448;44.956;7.660;2023-04-26T23:30:00;98360;;;22.5;45.0
44075;BME280;60448;44.956;7.660;2023-04-26T23:35:00;98360;;;22.5;45.0
44075;BME280;60448;44.956;7.660;2023-04-26T23:40:00;98360;;;22.5;45.0
44075;BME280;60448;44.956;7.660;2023-04-26T23:45:00;98360;;;22.5;45.0
44075;BME280;60448;44.956;7.660;2023-04-26T23:50:00;98360;;;22.5;45.0
44075;BME280;60448;44.956;7.660;2023-04-26T23:55:00;98360;;;22.5;45.0
